sensor_id;sensor_type;location;lat;lon;timestamp;temperature;humidity
72646;DHT22;60687;53.876;10.674;2023-08-17T00:05:01;18.40;90.70
72646;DHT22;60687;53.876;10.674;2023-08-17T00:15:06;18.30;90.50
72646;DHT22;60687;53.876;10.674;2023-08-17T00:25:08;18.20;91.00
72646;DHT22;60687;53.876;10.674;2023-08-17T00:35:12;18.10;91.30
72646;DHT22;60687;53.876;10.674;2023-08-17T00:45:15;18.10;91.20
72646;DHT22;60687;53.876;10.674;2023-08-17T00:55:20;18.00;91.50
72646;DHT22;60687;53.876;10.674;2023-08-17T01:05:23;17.90;91.70
72646;DHT22;60687;53.876;10.674;2023-08-17T01:15:34;17.80;91.80
72646;DHT22;60687;53.876;10.674;2023-08-17T01:25:38;17.80;91.90
72646;DHT22;60687;53.876;10.674;2023-08-17T01:35:48;17.60;92.60
72646;DHT22;60687;53.876;10.674;2023-08-17T01:45:55;17.60;92.80
72646;DHT22;60687;53.876;10.674;2023-08-17T01:55:57;17.50;93.30
72646;DHT22;60687;53.876;10.674;2023-08-17T02:06:01;17.50;93.60
72646;DHT22;60687;53.876;10.674;2023-08-17T02:16:04;17.40;94.00
72646;DHT22;60687;53.876;10.674;2023-08-17T02:26:08;17.40;94.40
72646;DHT22;60687;53.876;10.674;2023-08-17T02:36:10;17.40;94.70
72646;DHT22;60687;53.876;10.674;2023-08-17T02:46:15;17.30;95.20
72646;DHT22;60687;53.876;10.674;2023-08-17T02:56:18;17.30;96.10
72646;DHT22;60687;53.876;10.674;2023-08-17T03:06:24;17.20;96.60
72646;DHT22;60687;53.876;10.674;2023-08-17T03:16:26;17.20;96.70
72646;DHT22;60687;53.876;10.674;2023-08-17T03:26:33;17.20;97.60
72646;DHT22;60687;53.876;10.674;2023-08-17T03:36:35;17.20;98.10
72646;DHT22;60687;53.876;10.674;2023-08-17T03:46:39;17.20;98.20
72646;DHT22;60687;53.876;10.674;2023-08-17T03:56:42;17.20;98.30
72646;DHT22;60687;53.876;10.674;2023-08-17T04:06:45;17.30;98.40
72646;DHT22;60687;53.876;10.674;2023-08-17T04:16:48;17.30;98.60
72646;DHT22;60687;53.876;10.674;2023-08-17T04:26:53;17.40;99.30
72646;DHT22;60687;53.876;10.674;2023-08-17T04:36:55;17.40;99.90
72646;DHT22;60687;53.876;10.674;2023-08-17T04:46:59;17.50;99.90
72646;DHT22;60687;53.876;10.674;2023-08-17T04:57:01;17.50;99.90
72646;DHT22;60687;53.876;10.674;2023-08-17T05:07:07;17.60;99.90
72646;DHT22;60687;53.876;10.674;2023-08-17T05:17:10;17.70;99.90
72646;DHT22;60687;53.876;10.674;2023-08-17T05:27:14;17.70;99.90
72646;DHT22;60687;53.876;10.674;2023-08-17T05:37:16;17.80;99.90
72646;DHT22;60687;53.876;10.674;2023-08-17T05:47:20;17.80;99.90
72646;DHT22;60687;53.876;10.674;2023-08-17T05:57:22;17.90;99.90
72646;DHT22;60687;53.876;10.674;2023-08-17T06:07:26;18.00;99.90
72646;DHT22;60687;53.876;10.674;2023-08-17T06:17:29;18.00;99.90
72646;DHT22;60687;53.876;10.674;2023-08-17T06:27:33;18.10;99.90
72646;DHT22;60687;53.876;10.674;2023-08-17T06:37:36;18.10;99.90
72646;DHT22;60687;53.876;10.674;2023-08-17T06:47:39;18.20;99.90
72646;DHT22;60687;53.876;10.674;2023-08-17T06:57:42;18.20;99.90
72646;DHT22;60687;53.876;10.674;2023-08-17T07:07:46;18.30;99.90
72646;DHT22;60687;53.876;10.674;2023-08-17T07:17:48;18.30;99.90
72646;DHT22;60687;53.876;10.674;2023-08-17T07:27:52;18.30;99.90
72646;DHT22;60687;53.876;10.674;2023-08-17T07:37:54;18.40;99.90
72646;DHT22;60687;53.876;10.674;2023-08-17T07:47:58;18.50;99.90
72646;DHT22;60687;53.876;10.674;2023-08-17T07:58:00;18.50;99.90
72646;DHT22;60687;53.876;10.674;2023-08-17T08:08:05;18.60;99.90
72646;DHT22;60687;53.876;10.674;2023-08-17T08:18:08;18.70;99.90
72646;DHT22;60687;53.876;10.674;2023-08-17T08:28:12;18.70;99.90
72646;DHT22;60687;53.876;10.674;2023-08-17T08:38:15;18.70;99.90
72646;DHT22;60687;53.876;10.674;2023-08-17T08:48:21;18.70;99.90
72646;DHT22;60687;53.876;10.674;2023-08-17T08:58:25;18.80;99.70
72646;DHT22;60687;53.876;10.674;2023-08-17T09:08:31;18.80;99.90
72646;DHT22;60687;53.876;10.674;2023-08-17T09:18:34;18.70;99.90
72646;DHT22;60687;53.876;10.674;2023-08-17T09:28:40;18.80;99.90
72646;DHT22;60687;53.876;10.674;2023-08-17T09:38:43;18.90;99.90
72646;DHT22;60687;53.876;10.674;2023-08-17T09:48:49;19.00;99.90
72646;DHT22;60687;53.876;10.674;2023-08-17T09:58:51;19.00;99.60
72646;DHT22;60687;53.876;10.674;2023-08-17T10:08:57;19.00;98.10
72646;DHT22;60687;53.876;10.674;2023-08-17T10:19:06;19.00;97.10
72646;DHT22;60687;53.876;10.674;2023-08-17T10:29:16;18.90;97.90
72646;DHT22;60687;53.876;10.674;2023-08-17T10:39:23;18.90;98.80
72646;DHT22;60687;53.876;10.674;2023-08-17T10:49:27;18.70;98.90
72646;DHT22;60687;53.876;10.674;2023-08-17T10:59:30;18.60;99.90
72646;DHT22;60687;53.876;10.674;2023-08-17T11:09:37;18.60;99.90
72646;DHT22;60687;53.876;10.674;2023-08-17T11:19:40;18.60;99.90
72646;DHT22;60687;53.876;10.674;2023-08-17T11:29:44;18.60;99.90
72646;DHT22;60687;53.876;10.674;2023-08-17T11:39:47;18.50;99.90
72646;DHT22;60687;53.876;10.674;2023-08-17T11:49:50;18.50;99.90
72646;DHT22;60687;53.876;10.674;2023-08-17T11:59:54;18.40;99.90
72646;DHT22;60687;53.876;10.674;2023-08-17T12:10:02;18.30;99.90
72646;DHT22;60687;53.876;10.674;2023-08-17T12:20:07;18.20;99.90
72646;DHT22;60687;53.876;10.674;2023-08-17T12:30:24;18.20;99.90
72646;DHT22;60687;53.876;10.674;2023-08-17T12:40:27;18.10;99.90
72646;DHT22;60687;53.876;10.674;2023-08-17T12:50:31;18.10;99.90
72646;DHT22;60687;53.876;10.674;2023-08-17T13:00:33;18.20;99.90
72646;DHT22;60687;53.876;10.674;2023-08-17T13:10:37;18.10;99.90
72646;DHT22;60687;53.876;10.674;2023-08-17T13:20:39;18.00;99.90
72646;DHT22;60687;53.876;10.674;2023-08-17T13:30:43;18.00;99.90
72646;DHT22;60687;53.876;10.674;2023-08-17T13:40:46;17.90;99.90
72646;DHT22;60687;53.876;10.674;2023-08-17T13:50:52;17.80;99.90
72646;DHT22;60687;53.876;10.674;2023-08-17T14:00:55;17.80;99.90
72646;DHT22;60687;53.876;10.674;2023-08-17T14:10:59;17.80;99.90
72646;DHT22;60687;53.876;10.674;2023-08-17T14:21:01;17.80;99.90
72646;DHT22;60687;53.876;10.674;2023-08-17T14:31:05;17.90;99.90
72646;DHT22;60687;53.876;10.674;2023-08-17T14:41:08;17.80;99.90
72646;DHT22;60687;53.876;10.674;2023-08-17T14:51:12;17.70;99.90
72646;DHT22;60687;53.876;10.674;2023-08-17T15:01:14;17.60;99.90
72646;DHT22;60687;53.876;10.674;2023-08-17T15:11:18;17.50;99.90
72646;DHT22;60687;53.876;10.674;2023-08-17T15:21:21;17.40;99.90
72646;DHT22;60687;53.876;10.674;2023-08-17T15:31:25;17.30;99.90
72646;DHT22;60687;53.876;10.674;2023-08-17T15:41:30;17.20;99.90
72646;DHT22;60687;53.876;10.674;2023-08-17T15:51:34;17.20;99.90
72646;DHT22;60687;53.876;10.674;2023-08-17T16:01:46;17.10;99.90
72646;DHT22;60687;53.876;10.674;2023-08-17T16:11:49;17.00;99.90
72646;DHT22;60687;53.876;10.674;2023-08-17T16:21:52;17.00;99.90
72646;DHT22;60687;53.876;10.674;2023-08-17T16:32:03;16.90;99.90
72646;DHT22;60687;53.876;10.674;2023-08-17T16:42:06;17.00;99.90
72646;DHT22;60687;53.876;10.674;2023-08-17T16:52:10;16.90;99.90
72646;DHT22;60687;53.876;10.674;2023-08-17T17:02:12;16.90;99.90
72646;DHT22;60687;53.876;10.674;2023-08-17T17:12:17;17.00;99.90
72646;DHT22;60687;53.876;10.674;2023-08-17T17:22:19;17.00;99.90
72646;DHT22;60687;53.876;10.674;2023-08-17T17:32:25;17.10;99.90
72646;DHT22;60687;53.876;10.674;2023-08-17T17:42:27;17.20;99.90
72646;DHT22;60687;53.876;10.674;2023-08-17T17:52:31;17.10;99.90
72646;DHT22;60687;53.876;10.674;2023-08-17T18:02:34;17.20;99.90
72646;DHT22;60687;53.876;10.674;2023-08-17T18:12:38;17.20;99.90
72646;DHT22;60687;53.876;10.674;2023-08-17T18:22:41;17.30;99.90
72646;DHT22;60687;53.876;10.674;2023-08-17T18:32:45;17.20;99.90
72646;DHT22;60687;53.876;10.674;2023-08-17T18:42:49;17.30;99.90
72646;DHT22;60687;53.876;10.674;2023-08-17T18:52:53;17.30;99.90
72646;DHT22;60687;53.876;10.674;2023-08-17T19:02:55;17.40;99.90
72646;DHT22;60687;53.876;10.674;2023-08-17T19:13:00;17.40;99.90
72646;DHT22;60687;53.876;10.674;2023-08-17T19:23:03;17.50;99.90
72646;DHT22;60687;53.876;10.674;2023-08-17T19:33:08;17.60;99.90
72646;DHT22;60687;53.876;10.674;2023-08-17T19:43:10;17.60;99.90
72646;DHT22;60687;53.876;10.674;2023-08-17T19:53:15;17.70;99.90
72646;DHT22;60687;53.876;10.674;2023-08-17T20:03:17;17.70;99.90
72646;DHT22;60687;53.876;10.674;2023-08-17T20:13:21;17.80;99.90
72646;DHT22;60687;53.876;10.674;2023-08-17T20:23:23;17.70;99.90
72646;DHT22;60687;53.876;10.674;2023-08-17T20:33:27;17.60;99.90
72646;DHT22;60687;53.876;10.674;2023-08-17T20:43:30;17.50;99.90
72646;DHT22;60687;53.876;10.674;2023-08-17T20:53:34;17.50;99.90
72646;DHT22;60687;53.876;10.674;2023-08-17T21:03:37;17.50;99.90
72646;DHT22;60687;53.876;10.674;2023-08-17T21:13:40;17.50;99.90
72646;DHT22;60687;53.876;10.674;2023-08-17T21:23:43;17.50;99.90
72646;DHT22;60687;53.876;10.674;2023-08-17T21:33:47;17.60;99.90
72646;DHT22;60687;53.876;10.674;2023-08-17T21:43:49;17.60;99.90
72646;DHT22;60687;53.876;10.674;2023-08-17T21:53:54;17.60;99.90
72646;DHT22;60687;53.876;10.674;2023-08-17T22:03:59;17.70;99.90
72646;DHT22;60687;53.876;10.674;2023-08-17T22:14:03;17.70;99.90
72646;DHT22;60687;53.876;10.674;2023-08-17T22:24:06;17.70;99.90
72646;DHT22;60687;53.876;10.674;2023-08-17T22:34:13;17.60;99.90
72646;DHT22;60687;53.876;10.674;2023-08-17T22:44:16;17.60;99.90
72646;DHT22;60687;53.876;10.674;2023-08-17T22:54:19;17.60;99.90
72646;DHT22;60687;53.876;10.674;2023-08-17T23:04:22;17.50;99.90
72646;DHT22;60687;53.876;10.674;2023-08-17T23:14:26;17.60;99.90
72646;DHT22;60687;53.876;10.674;2023-08-17T23:24:29;17.50;99.90
72646;DHT22;60687;53.876;10.674;2023-08-17T23:34:33;17.50;99.90
72646;DHT22;60687;53.876;10.674;2023-08-17T23:44:35;17.50;99.90
72646;DHT22;60687;53.876;10.674;2023-08-17T23:54:39;17.50;99.90
